Westline, Pennsylvania
Current Conditions -  °F | °C
As of 10:53 AM on Thursday 23 Oct 2014 (Local Time) from KBFD Reporting Station
Clear Clear  
Wind Chill: 43°   Ceiling: Unl
Heat Index: 49°   Visibility: 10mi
Dew Point: 38°   Wind: 16mph
Humidity: 66%   Direction: 350°N
Pressure: 30.04"   Gusts: 24mph
Location:  41.78°N, 78.77°W
Report Text: KBFD 231453Z AUTO 35014G21KT 10SM CLR 09/03 A3004 RMK AO2 SLP180 T00940033 56006
Loading
Personal Weather Stations






























Interactive Weather Map
Tropical Storm Tracking
New forecast layout! Learn more

10-Day Weather Forecast

Advertisements
Track Severe Weather on mobile